Time;durP1;ratioP1;P1;durP2;ratioP2;P2;SDS_P1;SDS_P2;PMS_P1;PMS_P2;Temp;Humidity;BMP_temperature;BMP_pressure;BME280_temperature;BME280_humidity;BME280_pressure;Samples;Min_cycle;Max_cycle;Signal;HPM_P1;HPM_P2
2024/03/10 00:01:42;;;;;;;30.40;29.30;;;;;;;;;;4164283;28;20543;-58
2024/03/10 00:03:44;;;;;;;28.47;27.50;;;;;;;;;;4164229;28;20497;-58
2024/03/10 00:05:45;;;;;;;29.10;28.00;;;;;;;;;;4164433;28;20401;-58
2024/03/10 00:07:47;;;;;;;27.67;26.75;;;;;;;;;;4164409;28;20445;-58
2024/03/10 00:09:50;;;;;;;28.83;27.98;;;;;;;;;;4164344;28;20037;-57
2024/03/10 00:11:52;;;;;;;26.80;26.00;;;;;;;;;;4169621;28;20511;-59
2024/03/10 00:13:55;;;;;;;26.13;25.58;;;;;;;;;;4180948;28;20072;-59
2024/03/10 00:15:58;;;;;;;27.17;26.35;;;;;;;;;;4180886;28;20045;-59
2024/03/10 00:18:00;;;;;;;26.38;25.45;;;;;;;;;;4179340;28;20195;-58
2024/03/10 00:20:03;;;;;;;28.27;27.00;;;;;;;;;;4180815;28;20065;-58
2024/03/10 00:22:05;;;;;;;27.52;26.33;;;;;;;;;;4174582;28;20041;-59
2024/03/10 00:24:10;;;;;;;26.90;26.10;;;;;;;;;;4163998;28;20049;-58
2024/03/10 00:26:11;;;;;;;27.00;25.83;;;;;;;;;;4164214;28;20543;-58
2024/03/10 00:28:13;;;;;;;26.97;25.83;;;;;;;;;;4164027;28;20403;-58
2024/03/10 00:30:15;;;;;;;29.33;28.00;;;;;;;;;;4164032;28;20756;-58
2024/03/10 00:32:17;;;;;;;27.88;27.00;;;;;;;;;;4164223;28;20490;-56
2024/03/10 00:34:19;;;;;;;25.57;24.87;;;;;;;;;;4168987;28;20429;-56
2024/03/10 00:36:21;;;;;;;26.25;25.38;;;;;;;;;;4180451;28;20371;-56
2024/03/10 00:38:22;;;;;;;25.53;24.90;;;;;;;;;;4180373;28;20381;-56
2024/03/10 00:40:24;;;;;;;24.75;24.25;;;;;;;;;;4180369;28;20041;-56
2024/03/10 00:42:26;;;;;;;26.77;25.63;;;;;;;;;;4180167;28;20057;-57
2024/03/10 00:44:30;;;;;;;26.88;26.17;;;;;;;;;;4179584;28;20291;-56
2024/03/10 00:46:32;;;;;;;25.02;24.20;;;;;;;;;;4179209;28;20033;-56
2024/03/10 00:48:33;;;;;;;26.27;25.73;;;;;;;;;;4179121;28;20045;-57
2024/03/10 00:50:35;;;;;;;27.63;26.90;;;;;;;;;;4179546;28;20287;-56
2024/03/10 00:52:37;;;;;;;26.90;26.20;;;;;;;;;;4180240;28;20045;-56
2024/03/10 00:54:39;;;;;;;24.60;24.05;;;;;;;;;;4180246;28;20041;-55
2024/03/10 00:56:41;;;;;;;27.75;26.60;;;;;;;;;;4180085;28;20052;-57
2024/03/10 00:58:43;;;;;;;24.85;24.33;;;;;;;;;;4180580;28;20059;-56
2024/03/10 01:00:44;;;;;;;25.95;24.90;;;;;;;;;;4179988;28;20563;-56
2024/03/10 01:02:48;;;;;;;25.52;24.52;;;;;;;;;;4180099;28;20041;-57
2024/03/10 01:04:49;;;;;;;23.27;22.67;;;;;;;;;;4182643;28;20055;-56
2024/03/10 01:06:51;;;;;;;27.00;26.10;;;;;;;;;;4183213;28;20463;-55
2024/03/10 01:08:53;;;;;;;26.38;25.58;;;;;;;;;;4183666;28;20136;-56
2024/03/10 01:10:55;;;;;;;26.13;24.98;;;;;;;;;;4182438;28;20037;-56
2024/03/10 01:12:57;;;;;;;26.83;25.95;;;;;;;;;;4182103;28;20431;-56
2024/03/10 01:14:58;;;;;;;25.50;24.70;;;;;;;;;;4183642;28;20037;-56
2024/03/10 01:17:04;;;;;;;26.53;25.40;;;;;;;;;;4183682;28;20068;-56
2024/03/10 01:19:09;;;;;;;26.35;25.23;;;;;;;;;;4171277;28;20073;-56
2024/03/10 01:21:10;;;;;;;26.92;26.02;;;;;;;;;;4166789;28;20041;-56
2024/03/10 01:23:12;;;;;;;27.80;26.55;;;;;;;;;;4166788;28;20095;-57
2024/03/10 01:25:14;;;;;;;24.95;24.33;;;;;;;;;;4166965;28;20037;-56
2024/03/10 01:27:16;;;;;;;25.70;25.05;;;;;;;;;;4167058;28;20382;-56
2024/03/10 01:29:17;;;;;;;23.55;23.20;;;;;;;;;;4166953;28;20041;-56
2024/03/10 01:31:19;;;;;;;27.17;26.33;;;;;;;;;;4177849;28;20049;-57
2024/03/10 01:33:21;;;;;;;26.92;25.58;;;;;;;;;;4183358;28;20471;-56
2024/03/10 01:35:24;;;;;;;24.65;24.10;;;;;;;;;;4183044;28;20045;-56
2024/03/10 01:37:26;;;;;;;25.90;25.20;;;;;;;;;;4183039;28;20045;-56
2024/03/10 01:39:27;;;;;;;25.98;24.65;;;;;;;;;;4183079;28;20088;-56
2024/03/10 01:41:31;;;;;;;25.40;24.40;;;;;;;;;;4182877;28;20040;-56
2024/03/10 01:43:34;;;;;;;23.00;22.30;;;;;;;;;;4183034;28;20052;-56
2024/03/10 01:45:36;;;;;;;24.60;23.73;;;;;;;;;;4182678;28;20043;-57
2024/03/10 01:47:38;;;;;;;24.52;23.77;;;;;;;;;;4183146;28;20098;-56
2024/03/10 01:49:40;;;;;;;24.25;23.33;;;;;;;;;;4215254;28;20489;-57
2024/03/10 01:51:42;;;;;;;22.90;22.40;;;;;;;;;;4182879;28;20080;-56
2024/03/10 01:53:44;;;;;;;25.03;24.17;;;;;;;;;;4182913;28;20037;-57
2024/03/10 01:55:47;;;;;;;25.60;24.65;;;;;;;;;;4182838;28;20044;-56
2024/03/10 01:57:48;;;;;;;26.17;25.40;;;;;;;;;;4181925;28;20120;-57
2024/03/10 01:59:50;;;;;;;26.17;25.30;;;;;;;;;;4183016;28;20045;-56
2024/03/10 02:01:53;;;;;;;22.27;21.87;;;;;;;;;;4198465;22;20396;-58
2024/03/10 02:03:55;;;;;;;24.80;24.10;;;;;;;;;;4185865;28;20287;-58
2024/03/10 02:05:56;;;;;;;26.00;25.27;;;;;;;;;;4182673;28;20044;-57
2024/03/10 02:07:58;;;;;;;24.10;23.65;;;;;;;;;;4182865;28;20040;-57
2024/03/10 02:10:01;;;;;;;23.95;23.42;;;;;;;;;;4185515;28;20040;-58
2024/03/10 02:12:03;;;;;;;23.05;22.48;;;;;;;;;;4197765;28;20048;-57
2024/03/10 02:14:04;;;;;;;25.42;24.70;;;;;;;;;;4196474;28;20064;-58
2024/03/10 02:16:07;;;;;;;26.23;25.25;;;;;;;;;;4197089;28;20056;-57
2024/03/10 02:18:10;;;;;;;25.40;24.55;;;;;;;;;;4197090;28;20052;-57
2024/03/10 02:20:20;;;;;;;23.02;22.05;;;;;;;;;;4197227;28;20049;-56
2024/03/10 02:22:22;;;;;;;21.63;20.83;;;;;;;;;;4197091;28;20060;-57
2024/03/10 02:24:31;;;;;;;22.85;22.17;;;;;;;;;;4196938;28;20128;-57
2024/03/10 02:26:36;;;;;;;23.45;22.38;;;;;;;;;;4197015;28;20490;-58
2024/03/10 02:28:57;;;;;;;22.40;22.08;;;;;;;;;;4196915;28;20049;-57
2024/03/10 02:47:11;;;;;;;21.85;20.73;;;;;;;;;;4196928;28;20048;-57
2024/03/10 02:47:23;;;;;;;26.63;25.55;;;;;;;;;;4180686;28;20500;-58
2024/03/10 02:49:27;;;;;;;23.60;22.80;;;;;;;;;;4181136;28;20044;-57
2024/03/10 02:51:32;;;;;;;25.83;25.13;;;;;;;;;;4181275;28;20036;-57
2024/03/10 02:53:33;;;;;;;27.35;25.83;;;;;;;;;;4181128;28;20186;-58
2024/03/10 02:55:35;;;;;;;27.33;26.20;;;;;;;;;;4181149;28;20114;-57
2024/03/10 02:57:37;;;;;;;26.35;25.30;;;;;;;;;;4181148;28;20056;-57
2024/03/10 02:59:39;;;;;;;24.87;23.97;;;;;;;;;;4196449;28;20530;-57
2024/03/10 03:01:40;;;;;;;26.35;25.33;;;;;;;;;;4200085;28;20281;-58
2024/03/10 03:03:42;;;;;;;26.10;24.95;;;;;;;;;;4214486;28;20044;-58
2024/03/10 03:05:44;;;;;;;25.58;24.35;;;;;;;;;;4214882;28;20048;-58
2024/03/10 03:07:46;;;;;;;26.37;25.60;;;;;;;;;;4215437;28;20032;-57
2024/03/10 03:09:47;;;;;;;26.55;25.85;;;;;;;;;;4215079;28;20032;-57
2024/03/10 03:11:49;;;;;;;24.67;23.80;;;;;;;;;;4214734;28;20040;-57
2024/03/10 03:13:51;;;;;;;22.35;21.35;;;;;;;;;;4215395;28;20028;-57
2024/03/10 03:15:53;;;;;;;27.13;25.87;;;;;;;;;;4213495;28;20097;-57
2024/03/10 03:17:54;;;;;;;23.87;23.23;;;;;;;;;;4214808;28;20040;-58
2024/03/10 03:19:59;;;;;;;25.00;24.25;;;;;;;;;;4214813;28;20400;-57
2024/03/10 03:22:01;;;;;;;26.45;25.40;;;;;;;;;;4214758;28;20130;-57
2024/03/10 03:24:07;;;;;;;23.53;22.70;;;;;;;;;;4214824;28;20055;-58
2024/03/10 03:26:09;;;;;;;23.60;22.70;;;;;;;;;;4213825;28;20302;-57
2024/03/10 03:28:11;;;;;;;23.40;22.65;;;;;;;;;;4214723;28;20503;-57
2024/03/10 03:30:13;;;;;;;24.60;23.87;;;;;;;;;;4214958;28;20044;-58
2024/03/10 03:32:14;;;;;;;24.75;24.15;;;;;;;;;;4214622;28;20040;-57
2024/03/10 03:34:16;;;;;;;21.73;21.13;;;;;;;;;;4214588;28;20046;-57
2024/03/10 03:36:19;;;;;;;23.33;22.63;;;;;;;;;;4213592;28;20048;-57
2024/03/10 03:38:21;;;;;;;25.65;23.95;;;;;;;;;;4214469;28;20052;-57
2024/03/10 03:40:23;;;;;;;21.88;20.52;;;;;;;;;;4214665;28;20058;-58
2024/03/10 03:42:24;;;;;;;20.85;20.42;;;;;;;;;;4214414;28;20036;-57
2024/03/10 03:44:26;;;;;;;22.00;20.77;;;;;;;;;;4214155;28;20105;-57
2024/03/10 03:46:28;;;;;;;22.27;21.40;;;;;;;;;;4214454;28;20032;-57
2024/03/10 03:48:30;;;;;;;21.40;20.50;;;;;;;;;;4206173;28;20496;-56
2024/03/10 03:50:32;;;;;;;21.95;21.23;;;;;;;;;;4197589;28;20071;-57
2024/03/10 03:52:34;;;;;;;22.38;21.60;;;;;;;;;;4202888;28;20040;-57
2024/03/10 03:54:36;;;;;;;24.33;23.40;;;;;;;;;;4214166;28;20055;-56
2024/03/10 03:56:37;;;;;;;22.58;21.75;;;;;;;;;;4212934;28;20126;-57
2024/03/10 03:58:40;;;;;;;24.07;23.23;;;;;;;;;;4204573;28;20037;-57
2024/03/10 04:00:43;;;;;;;23.95;22.80;;;;;;;;;;4197374;28;20117;-57
2024/03/10 04:02:47;;;;;;;23.58;22.75;;;;;;;;;;4199462;28;20064;-57
2024/03/10 04:04:48;;;;;;;25.58;24.77;;;;;;;;;;4214077;28;20036;-57
2024/03/10 04:06:50;;;;;;;24.77;23.60;;;;;;;;;;4214024;28;20028;-58
2024/03/10 04:08:53;;;;;;;25.33;24.53;;;;;;;;;;4214087;28;20487;-58
2024/03/10 04:10:59;;;;;;;25.15;24.05;;;;;;;;;;4214251;28;20036;-57
2024/03/10 04:13:02;;;;;;;22.75;22.13;;;;;;;;;;4214016;28;20414;-57
2024/03/10 04:15:04;;;;;;;24.88;23.75;;;;;;;;;;4213945;28;20499;-57
2024/03/10 04:17:05;;;;;;;25.13;24.27;;;;;;;;;;4214239;28;20093;-57
2024/03/10 04:19:08;;;;;;;24.90;23.73;;;;;;;;;;4213806;28;20051;-57
2024/03/10 04:21:10;;;;;;;23.50;22.60;;;;;;;;;;4213989;28;20407;-57
2024/03/10 04:23:12;;;;;;;25.08;24.27;;;;;;;;;;4214108;28;20055;-56
2024/03/10 04:25:14;;;;;;;23.53;22.93;;;;;;;;;;4213832;28;20039;-57
2024/03/10 04:27:16;;;;;;;25.00;24.20;;;;;;;;;;4213854;28;20044;-57
2024/03/10 04:29:17;;;;;;;23.10;22.27;;;;;;;;;;4214105;28;20043;-56
2024/03/10 04:31:20;;;;;;;24.65;23.25;;;;;;;;;;4213842;28;20513;-56
2024/03/10 04:33:22;;;;;;;23.17;22.25;;;;;;;;;;4213970;28;20496;-56
2024/03/10 04:35:24;;;;;;;20.92;19.98;;;;;;;;;;4213955;28;20048;-57
2024/03/10 04:37:27;;;;;;;;;;;;;;;;;;4214027;28;20041;-56
2024/03/10 04:39:29;;;;;;;25.58;24.60;;;;;;;;;;4213728;28;19924;-57
2024/03/10 04:41:31;;;;;;;21.20;20.45;;;;;;;;;;4213748;28;20070;-56
2024/03/10 04:43:32;;;;;;;23.95;22.98;;;;;;;;;;4213695;28;20400;-56
2024/03/10 04:45:34;;;;;;;23.63;22.10;;;;;;;;;;4212611;28;20036;-56
2024/03/10 04:47:36;;;;;;;23.35;22.45;;;;;;;;;;4199588;28;20278;-56
2024/03/10 04:49:40;;;;;;;21.83;21.10;;;;;;;;;;4199896;28;20403;-57
2024/03/10 04:51:41;;;;;;;21.65;20.33;;;;;;;;;;4213720;28;20712;-57
2024/03/10 04:53:43;;;;;;;22.38;21.75;;;;;;;;;;4213608;28;20500;-57
2024/03/10 04:55:45;;;;;;;24.38;23.50;;;;;;;;;;4213729;28;20048;-56
2024/03/10 04:57:47;;;;;;;23.53;22.67;;;;;;;;;;4213508;28;20032;-57
2024/03/10 04:59:48;;;;;;;22.67;21.88;;;;;;;;;;4213849;28;20075;-56
2024/03/10 05:01:56;;;;;;;22.95;22.30;;;;;;;;;;4208972;28;20051;-56
2024/03/10 05:03:59;;;;;;;21.88;20.80;;;;;;;;;;4207844;28;20097;-57
2024/03/10 05:06:01;;;;;;;;;;;;;;;;;;4213893;28;20040;-57
2024/03/10 05:08:02;;;;;;;22.80;21.77;;;;;;;;;;4213480;28;20291;-56
2024/03/10 05:10:04;;;;;;;24.13;22.90;;;;;;;;;;4213574;28;20080;-56
2024/03/10 05:12:08;;;;;;;24.92;23.63;;;;;;;;;;4213682;28;20044;-57
2024/03/10 05:14:12;;;;;;;23.98;22.73;;;;;;;;;;4213716;28;20051;-56
2024/03/10 05:16:16;;;;;;;22.98;22.45;;;;;;;;;;4213551;28;20043;-57
2024/03/10 05:18:18;;;;;;;24.98;24.02;;;;;;;;;;4213555;28;20074;-57
2024/03/10 05:20:21;;;;;;;24.63;22.97;;;;;;;;;;4213568;28;20044;-57
2024/03/10 05:22:24;;;;;;;25.40;24.60;;;;;;;;;;4213260;28;20105;-57
2024/03/10 05:24:26;;;;;;;24.90;23.88;;;;;;;;;;4213480;28;20055;-57
2024/03/10 05:26:27;;;;;;;25.65;24.55;;;;;;;;;;4212133;28;20044;-57
2024/03/10 05:28:29;;;;;;;25.85;24.83;;;;;;;;;;4213192;28;20576;-57
2024/03/10 05:30:31;;;;;;;25.98;24.92;;;;;;;;;;4213659;28;20059;-57
2024/03/10 05:32:33;;;;;;;26.50;25.33;;;;;;;;;;4213254;28;20485;-58
2024/03/10 05:34:39;;;;;;;24.67;23.40;;;;;;;;;;4213556;28;20082;-57
2024/03/10 05:36:43;;;;;;;22.88;22.05;;;;;;;;;;4213366;28;20050;-57
2024/03/10 05:38:44;;;;;;;23.77;22.98;;;;;;;;;;4203465;28;20503;-57
2024/03/10 05:40:46;;;;;;;21.67;20.75;;;;;;;;;;4213515;28;20487;-58
2024/03/10 05:42:48;;;;;;;21.90;20.57;;;;;;;;;;4198154;28;20044;-58
2024/03/10 05:44:49;;;;;;;22.23;21.07;;;;;;;;;;4205150;28;20044;-58
2024/03/10 05:46:51;;;;;;;24.27;22.88;;;;;;;;;;4199158;28;20305;-58
2024/03/10 05:48:55;;;;;;;21.27;19.77;;;;;;;;;;4213102;28;20052;-58
2024/03/10 05:50:57;;;;;;;24.38;22.65;;;;;;;;;;4216095;28;20126;-58
2024/03/10 05:52:59;;;;;;;23.92;22.67;;;;;;;;;;4216364;28;20040;-58
2024/03/10 05:55:00;;;;;;;24.13;23.17;;;;;;;;;;4216399;28;20044;-58
2024/03/10 05:57:02;;;;;;;26.70;25.30;;;;;;;;;;4216114;28;20297;-59
2024/03/10 05:59:04;;;;;;;25.30;24.23;;;;;;;;;;4215689;28;20052;-58
2024/03/10 06:01:05;;;;;;;25.50;24.53;;;;;;;;;;4216318;28;20753;-58
2024/03/10 06:03:09;;;;;;;26.65;25.60;;;;;;;;;;4215846;28;20399;-58
2024/03/10 06:05:13;;;;;;;26.80;25.88;;;;;;;;;;4216038;28;20052;-58
2024/03/10 06:07:16;;;;;;;26.42;25.02;;;;;;;;;;4215925;28;20043;-58
2024/03/10 06:09:18;;;;;;;26.30;25.23;;;;;;;;;;4215847;28;20234;-58
2024/03/10 06:11:20;;;;;;;26.63;25.85;;;;;;;;;;4215733;28;20078;-58
2024/03/10 06:13:21;;;;;;;25.17;23.88;;;;;;;;;;4216109;28;20032;-58
2024/03/10 06:15:23;;;;;;;28.17;26.53;;;;;;;;;;4216022;28;20093;-58
2024/03/10 06:17:31;;;;;;;26.33;25.10;;;;;;;;;;4215746;28;20039;-59
2024/03/10 06:26:33;;;;;;;27.15;26.08;;;;;;;;;;4215536;28;20040;-58
2024/03/10 06:28:35;;;;;;;24.75;23.73;;;;;;;;;;4215865;28;20043;-58
2024/03/10 06:30:37;;;;;;;24.45;23.67;;;;;;;;;;4215631;28;20079;-58
2024/03/10 06:32:38;;;;;;;26.30;25.57;;;;;;;;;;4215787;28;20039;-58
2024/03/10 06:34:42;;;;;;;24.77;23.70;;;;;;;;;;4215836;28;20044;-58
2024/03/10 06:36:44;;;;;;;26.20;25.30;;;;;;;;;;4215674;28;20429;-58
2024/03/10 06:38:46;;;;;;;23.10;22.45;;;;;;;;;;4215669;28;20052;-58
2024/03/10 06:40:48;;;;;;;24.85;23.77;;;;;;;;;;4215757;28;20050;-58
2024/03/10 06:42:49;;;;;;;26.13;24.90;;;;;;;;;;4215549;28;20044;-58
2024/03/10 06:44:51;;;;;;;26.50;25.58;;;;;;;;;;4215666;28;20351;-58
2024/03/10 06:46:53;;;;;;;24.90;23.70;;;;;;;;;;4215415;28;20028;-57
2024/03/10 06:48:55;;;;;;;27.15;25.73;;;;;;;;;;4215379;28;20044;-58
2024/03/10 06:50:57;;;;;;;25.75;24.45;;;;;;;;;;4215565;28;20052;-57
2024/03/10 06:52:58;;;;;;;26.38;24.73;;;;;;;;;;4214352;28;20044;-58
2024/03/10 06:55:00;;;;;;;24.67;23.77;;;;;;;;;;4210661;28;20377;-57
2024/03/10 06:57:02;;;;;;;23.20;22.48;;;;;;;;;;4211883;28;20369;-58
2024/03/10 06:59:04;;;;;;;23.87;22.73;;;;;;;;;;4204066;28;21025;-58
2024/03/10 07:01:06;;;;;;;22.40;21.33;;;;;;;;;;4210693;28;20785;-58
2024/03/10 07:03:10;;;;;;;22.90;22.17;;;;;;;;;;4214891;28;20056;-58
2024/03/10 07:05:12;;;;;;;26.42;25.52;;;;;;;;;;4208631;28;20518;-58
2024/03/10 07:07:14;;;;;;;26.70;25.38;;;;;;;;;;4209909;28;20035;-57
2024/03/10 07:09:18;;;;;;;26.05;24.85;;;;;;;;;;4214760;28;20101;-58
2024/03/10 07:11:20;;;;;;;22.80;22.02;;;;;;;;;;4214913;28;20063;-58
2024/03/10 07:13:22;;;;;;;25.30;24.13;;;;;;;;;;4215033;28;20057;-57
2024/03/10 07:15:24;;;;;;;;;;;;;;;;;;4215302;28;20043;-58
2024/03/10 07:17:26;;;;;;;23.38;22.42;;;;;;;;;;4213984;28;19924;-58
2024/03/10 07:19:27;;;;;;;22.88;21.83;;;;;;;;;;4207984;28;20074;-58
2024/03/10 07:21:29;;;;;;;23.05;21.52;;;;;;;;;;4201224;28;20187;-58
2024/03/10 07:23:31;;;;;;;21.13;19.77;;;;;;;;;;4214379;28;20075;-58
2024/03/10 07:25:33;;;;;;;24.42;22.88;;;;;;;;;;4214900;28;20155;-57
2024/03/10 07:27:37;;;;;;;23.90;22.65;;;;;;;;;;4213486;28;20143;-58
2024/03/10 07:29:39;;;;;;;26.67;24.93;;;;;;;;;;4214653;28;20036;-58
2024/03/10 07:31:41;;;;;;;23.27;22.13;;;;;;;;;;4214860;28;20123;-58
2024/03/10 07:33:42;;;;;;;25.58;23.95;;;;;;;;;;4214627;28;20553;-58
2024/03/10 07:35:44;;;;;;;22.10;21.10;;;;;;;;;;4214551;28;20044;-58
2024/03/10 07:37:46;;;;;;;19.83;19.35;;;;;;;;;;4214765;28;20555;-58
2024/03/10 07:39:47;;;;;;;21.83;20.98;;;;;;;;;;4213420;28;20433;-58
2024/03/10 07:41:49;;;;;;;19.73;18.95;;;;;;;;;;4211548;28;20058;-58
2024/03/10 07:43:51;;;;;;;20.88;19.67;;;;;;;;;;4213340;28;20042;-58
2024/03/10 07:45:52;;;;;;;18.87;18.33;;;;;;;;;;4207819;28;20078;-57
2024/03/10 07:47:55;;;;;;;27.87;25.27;;;;;;;;;;4203404;28;20352;-57
2024/03/10 07:49:57;;;;;;;22.33;20.77;;;;;;;;;;4209289;28;20395;-58
2024/03/10 07:51:59;;;;;;;20.67;19.70;;;;;;;;;;4214180;28;20039;-57
2024/03/10 07:54:02;;;;;;;24.25;23.10;;;;;;;;;;4207872;28;20036;-57
2024/03/10 07:56:04;;;;;;;25.98;24.65;;;;;;;;;;4213876;28;20044;-58
2024/03/10 07:58:05;;;;;;;25.60;24.23;;;;;;;;;;4214154;28;20040;-57
2024/03/10 08:00:11;;;;;;;26.80;25.37;;;;;;;;;;4214340;28;20097;-58
2024/03/10 08:02:14;;;;;;;24.65;23.45;;;;;;;;;;4213938;28;20288;-58
2024/03/10 08:04:19;;;;;;;23.75;22.85;;;;;;;;;;4214200;28;20035;-58
2024/03/10 08:06:21;;;;;;;20.20;19.45;;;;;;;;;;4206568;28;20047;-58
2024/03/10 08:08:23;;;;;;;21.35;20.40;;;;;;;;;;4207998;28;20071;-58
2024/03/10 08:10:25;;;;;;;21.35;20.48;;;;;;;;;;4214094;28;20479;-58
2024/03/10 08:12:27;;;;;;;21.50;20.53;;;;;;;;;;4213692;28;20495;-58
2024/03/10 08:14:29;;;;;;;23.27;21.80;;;;;;;;;;4214081;28;20319;-58
2024/03/10 08:16:30;;;;;;;24.40;22.70;;;;;;;;;;4207800;28;20407;-58
2024/03/10 08:18:32;;;;;;;25.05;23.40;;;;;;;;;;4211046;28;20564;-58
2024/03/10 08:20:35;;;;;;;24.02;22.80;;;;;;;;;;4208383;28;20036;-58
2024/03/10 08:22:37;;;;;;;22.77;21.30;;;;;;;;;;4207101;28;20495;-58
2024/03/10 08:24:38;;;;;;;18.77;18.07;;;;;;;;;;4212037;28;20085;-57
2024/03/10 08:26:40;;;;;;;19.15;18.20;;;;;;;;;;4208729;28;20293;-57
2024/03/10 08:28:42;;;;;;;19.00;18.45;;;;;;;;;;4211546;28;20110;-58
2024/03/10 08:30:45;;;;;;;16.33;15.63;;;;;;;;;;4213021;28;20059;-58
2024/03/10 08:32:46;;;;;;;;;;;;;;;;;;4213044;28;20040;-58
2024/03/10 08:34:50;;;;;;;30.20;14.07;;;;;;;;;;4213808;28;20363;-58
2024/03/10 08:36:52;;;;;;;13.55;12.68;;;;;;;;;;4213941;28;20048;-57
2024/03/10 08:38:54;;;;;;;13.98;12.57;;;;;;;;;;4213850;28;20040;-57
2024/03/10 08:40:56;;;;;;;;;;;;;;;;;;4214434;28;20039;-58
2024/03/10 08:42:58;;;;;;;16.48;15.43;;;;;;;;;;4212738;28;19923;-58
2024/03/10 08:45:00;;;;;;;17.60;16.52;;;;;;;;;;4213510;28;20051;-57
2024/03/10 08:47:03;;;;;;;18.35;17.45;;;;;;;;;;4213470;28;20036;-57
2024/03/10 08:49:05;;;;;;;22.00;20.63;;;;;;;;;;4213719;28;20036;-57
2024/03/10 08:51:06;;;;;;;21.90;21.05;;;;;;;;;;4213735;28;20128;-58
2024/03/10 08:53:08;;;;;;;17.98;16.92;;;;;;;;;;4213888;28;20040;-57
2024/03/10 08:55:13;;;;;;;19.55;18.38;;;;;;;;;;4213501;28;20048;-57
2024/03/10 08:57:16;;;;;;;19.58;18.13;;;;;;;;;;4212440;28;20056;-57
2024/03/10 08:59:17;;;;;;;19.15;18.10;;;;;;;;;;4212567;28;20040;-57
2024/03/10 09:01:20;;;;;;;16.20;15.17;;;;;;;;;;4213236;28;20403;-58
2024/03/10 09:03:22;;;;;;;37.28;15.60;;;;;;;;;;4213375;28;20304;-58
2024/03/10 09:05:24;;;;;;;16.23;15.20;;;;;;;;;;4213269;28;20131;-57
2024/03/10 09:07:28;;;;;;;17.00;16.45;;;;;;;;;;4213361;28;20040;-58
2024/03/10 09:09:30;;;;;;;18.88;17.70;;;;;;;;;;4213672;28;20387;-57
2024/03/10 09:11:31;;;;;;;18.50;17.57;;;;;;;;;;4212620;28;20047;-58
2024/03/10 09:13:33;;;;;;;22.65;18.30;;;;;;;;;;4213449;28;20278;-58
2024/03/10 09:15:35;;;;;;;83.47;22.08;;;;;;;;;;4213424;28;20515;-58
2024/03/10 09:17:41;;;;;;;17.65;15.85;;;;;;;;;;4213088;28;20055;-57
2024/03/10 09:19:44;;;;;;;15.82;15.40;;;;;;;;;;4212918;28;20442;-58
2024/03/10 09:21:47;;;;;;;19.00;17.42;;;;;;;;;;4213298;28;20097;-57
2024/03/10 09:23:51;;;;;;;23.42;22.20;;;;;;;;;;4213250;28;20047;-57
2024/03/10 09:25:54;;;;;;;19.13;17.20;;;;;;;;;;4216310;28;20074;-57
2024/03/10 09:27:56;;;;;;;16.30;15.32;;;;;;;;;;4216272;28;20048;-58
2024/03/10 09:29:59;;;;;;;18.17;16.90;;;;;;;;;;4216650;28;20034;-57
2024/03/10 09:32:02;;;;;;;18.15;16.73;;;;;;;;;;4216288;28;20529;-57
2024/03/10 09:34:04;;;;;;;16.83;15.30;;;;;;;;;;4216317;28;20490;-57
2024/03/10 09:36:05;;;;;;;23.65;21.42;;;;;;;;;;4216501;28;20044;-57
2024/03/10 09:38:07;;;;;;;25.17;23.02;;;;;;;;;;4216380;28;20140;-58
2024/03/10 09:40:09;;;;;;;23.77;22.00;;;;;;;;;;4216477;28;20040;-57
2024/03/10 09:42:14;;;;;;;20.13;18.65;;;;;;;;;;4216318;28;20101;-58
2024/03/10 09:44:19;;;;;;;19.63;18.20;;;;;;;;;;4215914;28;20048;-57
2024/03/10 09:46:21;;;;;;;19.00;17.67;;;;;;;;;;4216287;28;20384;-57
2024/03/10 09:48:23;;;;;;;24.45;22.02;;;;;;;;;;4215720;28;20566;-57
2024/03/10 09:50:26;;;;;;;;;;;;;;;;;;4216926;28;20040;-57
2024/03/10 09:52:29;;;;;;;23.08;21.58;;;;;;;;;;4216116;28;20475;-57
2024/03/10 09:54:31;;;;;;;21.88;20.42;;;;;;;;;;4216324;28;20036;-57
2024/03/10 09:56:35;;;;;;;21.57;20.30;;;;;;;;;;4216171;28;20046;-56
2024/03/10 09:58:44;;;;;;;71.60;26.45;;;;;;;;;;4216298;28;20070;-58
2024/03/10 10:00:46;;;;;;;447.60;76.82;;;;;;;;;;4214592;28;20503;-57
2024/03/10 10:02:48;;;;;;;20.10;17.70;;;;;;;;;;4215599;28;20519;-57
2024/03/10 10:04:56;;;;;;;19.55;17.80;;;;;;;;;;4216156;28;20040;-57
2024/03/10 10:06:59;;;;;;;19.70;18.45;;;;;;;;;;4215702;28;20036;-57
2024/03/10 10:09:07;;;;;;;19.80;18.65;;;;;;;;;;4215912;28;20569;-57
2024/03/10 10:11:09;;;;;;;21.58;19.38;;;;;;;;;;4215859;28;20063;-58
2024/03/10 10:13:24;;;;;;;20.17;19.03;;;;;;;;;;4215808;28;20507;-56
2024/03/10 10:15:26;;;;;;;22.80;21.02;;;;;;;;;;4216049;28;20731;-56
2024/03/10 10:17:32;;;;;;;20.30;18.63;;;;;;;;;;4215604;28;20036;-57
2024/03/10 10:19:34;;;;;;;21.08;19.33;;;;;;;;;;4216312;28;20040;-56
2024/03/10 10:21:36;;;;;;;22.10;20.33;;;;;;;;;;4215919;28;20109;-57
2024/03/10 10:23:38;;;;;;;22.73;20.45;;;;;;;;;;4213367;28;20051;-57
2024/03/10 10:25:42;;;;;;;20.23;19.13;;;;;;;;;;4214414;28;20047;-56
2024/03/10 10:27:49;;;;;;;22.20;20.63;;;;;;;;;;4215478;28;20039;-57
2024/03/10 10:29:52;;;;;;;25.05;19.75;;;;;;;;;;4198822;28;20066;-56
2024/03/10 10:31:57;;;;;;;22.88;21.17;;;;;;;;;;4199049;28;20044;-57
2024/03/10 10:33:59;;;;;;;24.95;20.50;;;;;;;;;;4199174;28;20064;-57
2024/03/10 10:36:05;;;;;;;22.40;20.92;;;;;;;;;;4198477;28;20040;-57
2024/03/10 10:38:13;;;;;;;21.67;20.08;;;;;;;;;;4198665;28;20056;-56
2024/03/10 10:40:16;;;;;;;23.48;21.50;;;;;;;;;;4199094;28;20044;-57
2024/03/10 10:42:18;;;;;;;23.10;20.88;;;;;;;;;;4198530;28;20051;-56
2024/03/10 10:44:34;;;;;;;22.65;20.80;;;;;;;;;;4198475;28;20040;-57
2024/03/10 10:46:36;;;;;;;;;;;;;;;;;;4201307;28;20563;-57
2024/03/10 10:48:39;;;;;;;22.93;21.30;;;;;;;;;;4207016;28;19928;-57
2024/03/10 10:50:46;;;;;;;23.13;20.73;;;;;;;;;;4208617;28;20040;-57
2024/03/10 10:52:50;;;;;;;24.05;21.45;;;;;;;;;;4202375;28;20368;-56
2024/03/10 10:54:51;;;;;;;;;;;;;;;;;;4203698;28;20036;-57
2024/03/10 10:56:57;;;;;;;23.67;21.17;;;;;;;;;;4198930;28;19920;-57
2024/03/10 10:59:00;;;;;;;28.55;19.35;;;;;;;;;;4205743;28;20036;-56
2024/03/10 11:01:05;;;;;;;22.27;19.73;;;;;;;;;;4210830;28;20121;-56
2024/03/10 11:03:17;;;;;;;21.63;19.50;;;;;;;;;;4205337;28;20052;-56
2024/03/10 11:05:19;;;;;;;27.53;18.13;;;;;;;;;;4203910;28;20041;-56
2024/03/10 11:07:26;;;;;;;29.00;18.58;;;;;;;;;;4210077;28;20287;-56
2024/03/10 11:09:30;;;;;;;24.50;17.52;;;;;;;;;;4210853;28;20499;-57
2024/03/10 11:11:45;;;;;;;19.23;17.42;;;;;;;;;;4204446;28;20093;-57
2024/03/10 11:13:47;;;;;;;20.15;18.48;;;;;;;;;;4211006;28;20407;-56
2024/03/10 11:16:05;;;;;;;21.25;17.85;;;;;;;;;;4208390;28;20051;-57
2024/03/10 11:18:25;;;;;;;22.33;20.08;;;;;;;;;;4205215;28;20054;-63
2024/03/10 11:20:29;;;;;;;20.65;18.75;;;;;;;;;;4212341;28;20048;-63
2024/03/10 11:22:35;;;;;;;23.25;20.52;;;;;;;;;;4214827;28;20047;-63
2024/03/10 11:24:39;;;;;;;28.55;21.70;;;;;;;;;;4206842;28;20376;-60
2024/03/10 11:26:40;;;;;;;26.88;24.30;;;;;;;;;;4206916;28;20097;-59
2024/03/10 11:28:48;;;;;;;29.13;25.20;;;;;;;;;;4208476;28;20415;-60
2024/03/10 11:31:02;;;;;;;28.85;25.92;;;;;;;;;;4202352;28;20048;-59
2024/03/10 11:33:06;;;;;;;27.05;24.23;;;;;;;;;;4208595;28;20040;-59
2024/03/10 11:35:09;;;;;;;25.88;23.55;;;;;;;;;;4204301;28;20054;-59
2024/03/10 11:37:18;;;;;;;27.55;25.02;;;;;;;;;;4213006;28;20052;-59
2024/03/10 11:39:19;;;;;;;29.08;26.17;;;;;;;;;;4210469;28;20040;-59
2024/03/10 11:41:23;;;;;;;28.00;24.75;;;;;;;;;;4213872;28;20119;-59
2024/03/10 11:43:26;;;;;;;31.92;28.60;;;;;;;;;;4211268;28;20040;-60
2024/03/10 11:45:30;;;;;;;27.33;24.70;;;;;;;;;;4202459;28;20036;-60
2024/03/10 11:47:32;;;;;;;27.58;25.42;;;;;;;;;;4209300;28;20048;-59
2024/03/10 11:49:34;;;;;;;29.50;25.20;;;;;;;;;;4203788;28;20040;-59
2024/03/10 11:51:38;;;;;;;29.25;26.08;;;;;;;;;;4211883;28;20051;-59
2024/03/10 11:53:40;;;;;;;29.20;26.58;;;;;;;;;;4213071;28;20460;-59
2024/03/10 11:55:42;;;;;;;27.02;23.80;;;;;;;;;;4202256;28;20488;-60
2024/03/10 11:57:43;;;;;;;29.80;26.43;;;;;;;;;;4206053;28;20071;-59
2024/03/10 11:59:45;;;;;;;27.55;25.17;;;;;;;;;;4204008;28;20049;-59
2024/03/10 12:01:47;;;;;;;36.03;26.30;;;;;;;;;;4210748;28;20095;-60
2024/03/10 12:03:49;;;;;;;29.08;25.92;;;;;;;;;;4213362;28;20286;-59
2024/03/10 12:05:52;;;;;;;29.40;26.50;;;;;;;;;;4213290;28;20101;-59
2024/03/10 12:07:55;;;;;;;27.48;24.40;;;;;;;;;;4211239;28;20063;-59
2024/03/10 12:09:57;;;;;;;29.17;24.75;;;;;;;;;;4214049;28;20043;-58
2024/03/10 12:12:10;;;;;;;33.42;28.25;;;;;;;;;;4213714;28;20484;-59
2024/03/10 12:14:12;;;;;;;;;;;;;;;;;;4209174;28;20389;-59
2024/03/10 12:16:13;;;;;;;32.05;28.35;;;;;;;;;;4198655;28;20447;-59
2024/03/10 12:18:16;;;;;;;28.97;26.57;;;;;;;;;;4195934;28;20093;-60
2024/03/10 12:20:19;;;;;;;28.98;26.42;;;;;;;;;;4211068;28;20032;-60